createdAt,value
2022-11-15T00:03:33.873Z,4.99
2022-11-15T00:06:05.340Z,4.83
2022-11-15T00:08:33.705Z,4.84
2022-11-15T00:11:02.876Z,4.81
2022-11-15T00:13:30.773Z,4.81
2022-11-15T00:15:59.551Z,4.82
2022-11-15T00:18:26.421Z,4.81
2022-11-15T00:20:53.198Z,4.89
2022-11-15T00:23:19.953Z,4.78
2022-11-15T00:25:46.693Z,5.03
2022-11-15T00:28:13.547Z,4.94
2022-11-15T00:30:40.234Z,4.63
2022-11-15T00:33:07.493Z,4.77
2022-11-15T00:35:35.303Z,4.78
2022-11-15T00:38:03.016Z,4.88
2022-11-15T00:40:30.159Z,4.76
2022-11-15T00:42:56.943Z,4.84
2022-11-15T00:45:24.190Z,4.86
2022-11-15T00:47:50.932Z,4.71
2022-11-15T00:50:17.922Z,4.78
2022-11-15T00:52:45.232Z,4.73
2022-11-15T00:55:17.154Z,4.70
2022-11-15T00:57:44.601Z,4.65
2022-11-15T01:00:12.567Z,4.88
2022-11-15T01:02:39.622Z,4.75
2022-11-15T01:05:07.412Z,4.66
2022-11-15T01:07:34.337Z,4.50
2022-11-15T01:10:01.299Z,4.72
2022-11-15T01:12:28.063Z,4.50
2022-11-15T01:14:54.798Z,4.33
2022-11-15T01:17:21.553Z,4.26
2022-11-15T01:19:48.254Z,4.35
2022-11-15T01:22:15.092Z,4.25
2022-11-15T01:24:41.836Z,4.14
2022-11-15T01:27:08.565Z,3.93
2022-11-15T01:29:35.320Z,3.88
2022-11-15T01:32:02.051Z,3.81
2022-11-15T01:34:28.781Z,3.91
2022-11-15T01:36:55.472Z,3.90
2022-11-15T01:39:22.192Z,3.72
2022-11-15T01:41:48.952Z,3.63
2022-11-15T01:44:41.206Z,3.67
2022-11-15T01:47:13.370Z,3.63
2022-11-15T01:49:44.145Z,3.69
2022-11-15T01:52:16.213Z,3.64
2022-11-15T01:54:43.756Z,3.88
2022-11-15T01:57:13.096Z,3.85
2022-11-15T01:59:43.760Z,3.72
2022-11-15T02:02:10.453Z,3.77
2022-11-15T02:04:46.340Z,3.96
2022-11-15T02:07:16.803Z,3.97
2022-11-15T02:09:44.790Z,3.92
2022-11-15T02:12:14.880Z,3.79
2022-11-15T02:14:43.753Z,3.93
2022-11-15T02:17:27.393Z,3.93
2022-11-15T02:20:40.373Z,3.98
2022-11-15T02:23:34.598Z,3.99
2022-11-15T02:26:10.575Z,3.99
2022-11-15T02:28:55.419Z,4.03
2022-11-15T02:31:43.761Z,4.03
2022-11-15T02:34:26.982Z,4.03
2022-11-15T02:37:02.934Z,4.04
2022-11-15T02:39:38.583Z,4.00
2022-11-15T02:42:33.914Z,4.11
2022-11-15T02:45:06.284Z,4.08
2022-11-15T02:47:40.580Z,4.07
2022-11-15T02:50:11.109Z,4.12
2022-11-15T02:52:37.875Z,4.09
2022-11-15T02:55:05.105Z,4.20
2022-11-15T02:57:44.870Z,4.21
2022-11-15T03:00:16.557Z,4.13
2022-11-15T03:03:05.370Z,4.08
2022-11-15T03:05:43.310Z,4.02
2022-11-15T03:08:41.140Z,3.99
2022-11-15T03:11:12.644Z,4.03
2022-11-15T03:13:48.703Z,4.04
2022-11-15T03:16:26.032Z,4.15
2022-11-15T03:19:28.316Z,4.36
2022-11-15T03:21:57.423Z,4.37
2022-11-15T03:24:26.439Z,4.28
2022-11-15T03:26:56.404Z,3.91
2022-11-15T03:29:28.489Z,4.14
2022-11-15T03:32:01.892Z,4.12
2022-11-15T03:34:35.230Z,4.11
2022-11-15T03:37:02.848Z,4.05
2022-11-15T03:39:30.282Z,4.19
2022-11-15T03:42:06.340Z,4.25
2022-11-15T03:45:01.783Z,4.23
2022-11-15T03:47:34.021Z,4.31
2022-11-15T03:50:05.834Z,4.34
2022-11-15T03:52:34.810Z,4.36
2022-11-15T03:55:04.135Z,4.38
2022-11-15T03:57:31.081Z,4.44
2022-11-15T03:59:57.856Z,4.64
2022-11-15T04:02:24.596Z,4.61
2022-11-15T04:04:51.370Z,4.61
2022-11-15T04:07:18.304Z,4.61
2022-11-15T04:10:03.623Z,4.53
2022-11-15T04:12:31.996Z,4.49
2022-11-15T04:15:10.196Z,4.36
2022-11-15T04:17:42.438Z,4.42
2022-11-15T04:20:39.688Z,4.49
2022-11-15T04:23:45.376Z,4.53
2022-11-15T04:26:21.921Z,4.63
2022-11-15T04:29:07.469Z,4.58
2022-11-15T04:31:34.224Z,4.58
2022-11-15T04:34:01.233Z,4.50
2022-11-15T04:36:46.676Z,4.60
2022-11-15T04:39:13.583Z,4.59
2022-11-15T04:41:40.291Z,4.53
2022-11-15T04:44:07.012Z,4.57
2022-11-15T04:46:33.879Z,4.71
2022-11-15T04:49:00.621Z,4.63
2022-11-15T04:51:27.491Z,4.75
2022-11-15T04:53:54.241Z,4.72
2022-11-15T04:56:21.152Z,4.80
2022-11-15T04:58:50.445Z,5.21
2022-11-15T05:01:17.358Z,5.14
2022-11-15T05:04:03.717Z,5.25
2022-11-15T05:06:30.895Z,5.17
2022-11-15T05:08:57.972Z,5.10
2022-11-15T05:11:25.274Z,4.76
2022-11-15T05:13:52.129Z,4.95
2022-11-15T05:16:18.944Z,4.90
2022-11-15T05:18:45.760Z,4.96
2022-11-15T05:21:15.004Z,5.00
2022-11-15T05:23:42.417Z,4.99
2022-11-15T05:26:10.336Z,4.82
2022-11-15T05:28:37.895Z,4.90
2022-11-15T05:31:16.297Z,4.71
2022-11-15T05:33:44.468Z,4.91
2022-11-15T05:36:30.473Z,4.83
2022-11-15T05:38:57.524Z,4.88
2022-11-15T05:41:38.656Z,4.75
2022-11-15T05:44:10.646Z,4.77
2022-11-15T05:46:40.469Z,4.54
2022-11-15T05:49:10.320Z,4.74
2022-11-15T05:51:37.196Z,4.63
2022-11-15T05:54:04.182Z,4.58
2022-11-15T05:56:31.414Z,4.86
2022-11-15T05:59:00.089Z,4.74
2022-11-15T06:01:28.076Z,4.71
2022-11-15T06:03:54.958Z,4.59
2022-11-15T06:06:21.633Z,4.73
2022-11-15T06:08:49.020Z,4.67
2022-11-15T06:11:15.972Z,4.65
2022-11-15T06:13:42.822Z,4.67
2022-11-15T06:16:09.564Z,4.71
2022-11-15T06:18:37.370Z,4.59
2022-11-15T06:21:04.904Z,4.67
2022-11-15T06:23:36.291Z,4.62
2022-11-15T06:26:04.194Z,4.59
2022-11-15T06:28:32.329Z,4.64
2022-11-15T06:31:14.071Z,4.68
2022-11-15T06:33:41.422Z,4.46
2022-11-15T06:36:17.063Z,4.51
2022-11-15T06:38:45.448Z,4.73
2022-11-15T06:41:13.821Z,4.67
2022-11-15T06:43:41.631Z,4.69
2022-11-15T06:46:09.646Z,4.73
2022-11-15T06:48:37.380Z,4.70
2022-11-15T06:51:05.698Z,4.61
2022-11-15T06:53:33.966Z,4.59
2022-11-15T06:56:06.490Z,4.36
2022-11-15T06:58:33.395Z,4.61
2022-11-15T07:01:07.915Z,4.63
2022-11-15T07:03:40.116Z,4.64
2022-11-15T07:06:08.073Z,4.65
2022-11-15T07:08:35.543Z,4.70
2022-11-15T07:11:04.327Z,4.56
2022-11-15T07:13:35.903Z,4.61
2022-11-15T07:16:05.544Z,4.67
2022-11-15T07:18:32.342Z,4.57
2022-11-15T07:21:02.978Z,4.50
2022-11-15T07:23:30.047Z,4.45
2022-11-15T07:26:00.404Z,4.41
2022-11-15T07:28:27.975Z,4.64
2022-11-15T07:30:55.571Z,4.72
2022-11-15T07:33:22.777Z,4.30
2022-11-15T07:35:49.572Z,4.68
2022-11-15T07:38:17.091Z,4.67
2022-11-15T07:40:43.889Z,4.69
2022-11-15T07:43:10.639Z,4.71
2022-11-15T07:45:42.804Z,4.68
2022-11-15T07:48:09.508Z,4.77
2022-11-15T07:50:36.245Z,4.73
2022-11-15T07:53:03.000Z,4.69
2022-11-15T07:55:30.858Z,4.71
2022-11-15T07:58:05.485Z,4.70
2022-11-15T08:00:32.789Z,4.76
2022-11-15T08:03:26.048Z,4.76
2022-11-15T08:05:53.386Z,4.75
2022-11-15T08:08:20.084Z,4.68
2022-11-15T08:10:46.773Z,4.74
2022-11-15T08:13:14.214Z,4.70
2022-11-15T08:15:41.077Z,4.72
2022-11-15T08:18:15.243Z,4.73
2022-11-15T08:20:42.937Z,4.75
2022-11-15T08:23:12.231Z,4.78
2022-11-15T08:25:39.440Z,4.63
2022-11-15T08:28:08.044Z,4.77
2022-11-15T08:30:43.985Z,4.80
2022-11-15T08:33:13.739Z,4.80
2022-11-15T08:35:44.692Z,4.88
2022-11-15T08:38:12.193Z,4.96
2022-11-15T08:40:39.718Z,4.97
2022-11-15T08:43:06.776Z,4.95
2022-11-15T08:45:35.735Z,4.94
2022-11-15T08:48:04.295Z,5.05
2022-11-15T08:50:31.407Z,4.94
2022-11-15T08:52:58.108Z,5.07
2022-11-15T08:55:25.111Z,5.06
2022-11-15T08:57:51.998Z,5.10
2022-11-15T09:00:21.042Z,5.22
2022-11-15T09:02:48.282Z,5.27
2022-11-15T09:05:16.701Z,5.20
2022-11-15T09:07:43.459Z,5.22
2022-11-15T09:10:10.220Z,5.26
2022-11-15T09:12:37.146Z,5.06
2022-11-15T09:15:05.039Z,5.33
2022-11-15T09:17:31.762Z,5.22
2022-11-15T09:19:58.510Z,5.48
2022-11-15T09:22:25.159Z,5.59
2022-11-15T09:24:51.848Z,5.61
2022-11-15T09:27:18.594Z,5.63
2022-11-15T09:29:45.278Z,5.63
2022-11-15T09:32:12.047Z,5.54
2022-11-15T09:34:38.783Z,5.68
2022-11-15T09:37:05.493Z,5.49
2022-11-15T09:39:32.714Z,5.67
2022-11-15T09:42:24.348Z,5.71
2022-11-15T09:45:33.011Z,5.71
2022-11-15T09:48:33.329Z,5.70
2022-11-15T09:51:00.487Z,5.80
2022-11-15T09:56:39.577Z,5.86
2022-11-15T09:59:21.181Z,5.86
2022-11-15T10:02:19.500Z,5.91
2022-11-15T10:04:46.390Z,5.82
2022-11-15T10:07:16.240Z,5.89
2022-11-15T10:10:03.101Z,5.79
2022-11-15T10:12:31.162Z,5.87
2022-11-15T10:15:16.302Z,6.06
2022-11-15T10:18:04.518Z,6.03
2022-11-15T10:20:37.053Z,6.06
2022-11-15T10:23:11.669Z,6.00
2022-11-15T10:25:39.944Z,6.05
2022-11-15T10:28:22.372Z,6.01
2022-11-15T10:30:54.527Z,6.03
2022-11-15T10:33:26.909Z,6.09
2022-11-15T10:36:12.497Z,6.12
2022-11-15T10:38:51.446Z,6.23
2022-11-15T10:41:19.520Z,6.27
2022-11-15T10:44:02.447Z,6.14
2022-11-15T10:46:46.270Z,6.30
2022-11-15T10:49:18.155Z,6.29
2022-11-15T10:51:49.274Z,6.31
2022-11-15T10:54:28.583Z,6.33
2022-11-15T10:56:58.438Z,6.29
2022-11-15T10:59:34.911Z,6.43
2022-11-15T11:02:30.194Z,6.28
2022-11-15T11:04:57.383Z,6.47
2022-11-15T11:07:30.882Z,6.55
2022-11-15T11:13:16.045Z,6.51
2022-11-15T11:15:48.373Z,6.37
2022-11-15T11:18:43.712Z,6.51
2022-11-15T11:21:31.092Z,6.61
2022-11-15T11:24:32.616Z,6.55
2022-11-15T11:27:05.271Z,6.67
2022-11-15T11:29:56.007Z,6.66
2022-11-15T11:32:35.531Z,6.57
2022-11-15T11:35:08.197Z,6.52
2022-11-15T11:37:55.235Z,6.52
2022-11-15T11:40:42.115Z,6.58
2022-11-15T11:43:44.536Z,6.63
2022-11-15T11:46:56.113Z,6.62
2022-11-15T11:49:32.283Z,6.43
2022-11-15T11:52:04.764Z,6.65
2022-11-15T11:54:37.069Z,6.64
2022-11-15T11:57:11.562Z,6.55
2022-11-15T11:59:49.787Z,6.71
2022-11-15T12:02:27.579Z,6.69
2022-11-15T12:05:02.887Z,6.51
2022-11-15T12:07:35.294Z,6.78
2022-11-15T12:10:15.515Z,6.85
2022-11-15T12:12:54.354Z,6.71
2022-11-15T12:15:36.786Z,6.56
2022-11-15T12:18:03.923Z,6.63
2022-11-15T12:20:37.658Z,6.71
2022-11-15T12:23:14.992Z,6.73
2022-11-15T12:25:50.535Z,6.74
2022-11-15T12:28:25.552Z,6.63
2022-11-15T12:30:57.318Z,6.55
2022-11-15T12:33:49.717Z,6.84
2022-11-15T12:36:22.315Z,6.72
2022-11-15T12:38:48.955Z,6.68
2022-11-15T12:41:20.721Z,6.61
2022-11-15T12:43:49.289Z,6.66
2022-11-15T12:46:31.571Z,6.55
2022-11-15T12:48:59.905Z,6.48
2022-11-15T12:51:44.568Z,6.52
2022-11-15T12:54:23.387Z,6.58
2022-11-15T12:57:02.418Z,6.59
2022-11-15T13:00:05.181Z,6.60
2022-11-15T13:02:44.984Z,6.43
2022-11-15T13:05:19.458Z,6.62
2022-11-15T13:07:46.163Z,6.61
2022-11-15T13:10:28.624Z,6.57
2022-11-15T13:12:59.802Z,6.76
2022-11-15T13:15:43.147Z,6.91
2022-11-15T13:18:39.332Z,6.81
2022-11-15T13:21:39.005Z,6.82
2022-11-15T13:24:10.356Z,6.79
2022-11-15T13:26:40.666Z,6.71
2022-11-15T13:29:17.569Z,6.73
2022-11-15T13:31:45.901Z,6.66
2022-11-15T13:34:49.955Z,6.70
2022-11-15T13:37:21.014Z,6.69
2022-11-15T13:39:49.412Z,6.67
2022-11-15T13:42:20.325Z,6.71
2022-11-15T13:44:59.304Z,6.74
2022-11-15T13:47:30.951Z,6.71
2022-11-15T13:50:02.277Z,6.56
2022-11-15T13:52:35.000Z,6.59
2022-11-15T13:55:23.516Z,6.53
2022-11-15T13:57:54.926Z,6.54
2022-11-15T14:00:34.534Z,6.46
2022-11-15T14:03:19.469Z,6.46
2022-11-15T14:06:06.122Z,6.28
2022-11-15T14:08:33.147Z,6.22
2022-11-15T14:11:20.766Z,6.51
2022-11-15T14:14:06.384Z,6.56
2022-11-15T14:16:41.842Z,6.65
2022-11-15T14:19:33.117Z,6.56
2022-11-15T14:22:16.176Z,6.42
2022-11-15T14:24:46.178Z,6.41
2022-11-15T14:27:27.340Z,6.51
2022-11-15T14:29:54.552Z,6.07
2022-11-15T14:32:27.294Z,6.07
2022-11-15T14:35:02.140Z,6.18
2022-11-15T14:37:35.874Z,6.23
2022-11-15T14:40:05.992Z,6.30
2022-11-15T14:42:33.005Z,6.32
2022-11-15T14:44:59.771Z,6.20
2022-11-15T14:47:26.481Z,6.28
2022-11-15T14:49:53.289Z,6.36
2022-11-15T14:52:32.512Z,6.35
2022-11-15T14:55:00.390Z,6.33
2022-11-15T14:57:27.077Z,6.15
2022-11-15T14:59:54.184Z,6.42
2022-11-15T15:02:24.221Z,6.54
2022-11-15T15:04:51.824Z,6.55
2022-11-15T15:07:19.551Z,6.54
2022-11-15T15:09:46.551Z,6.50
2022-11-15T15:12:24.069Z,6.35
2022-11-15T15:14:51.691Z,6.44
2022-11-15T15:17:18.995Z,6.33
2022-11-15T15:19:45.788Z,6.30
2022-11-15T15:22:18.322Z,6.30
2022-11-15T15:24:46.360Z,6.28
2022-11-15T15:27:13.733Z,6.28
2022-11-15T15:29:41.612Z,6.21
2022-11-15T15:32:09.653Z,6.27
2022-11-15T15:34:36.360Z,6.22
2022-11-15T15:37:24.049Z,6.28
2022-11-15T15:39:56.259Z,6.27
2022-11-15T15:42:24.147Z,6.20
2022-11-15T15:44:52.004Z,5.97
2022-11-15T15:47:24.016Z,6.23
2022-11-15T15:49:51.477Z,6.18
2022-11-15T15:52:18.656Z,6.23
2022-11-15T15:54:45.368Z,6.11
2022-11-15T15:57:14.553Z,6.19
2022-11-15T15:59:41.607Z,5.94
2022-11-15T16:02:12.698Z,6.18
2022-11-15T16:04:39.696Z,6.15
2022-11-15T16:07:07.263Z,6.05
2022-11-15T16:09:56.785Z,6.00
2022-11-15T16:12:24.054Z,6.19
2022-11-15T16:14:50.918Z,6.05
2022-11-15T16:17:24.543Z,6.16
2022-11-15T16:19:51.634Z,5.86
2022-11-15T16:22:18.464Z,5.93
2022-11-15T16:24:45.266Z,5.90
2022-11-15T16:27:18.813Z,6.18
2022-11-15T16:29:46.711Z,6.27
2022-11-15T16:32:14.007Z,6.20
2022-11-15T16:34:46.152Z,6.07
2022-11-15T16:37:23.751Z,6.22
2022-11-15T16:39:51.116Z,6.13
2022-11-15T16:42:18.501Z,6.10
2022-11-15T16:44:45.585Z,6.09
2022-11-15T16:47:21.567Z,6.06
2022-11-15T16:49:48.517Z,6.09
2022-11-15T16:52:20.147Z,6.07
2022-11-15T16:54:48.149Z,6.01
2022-11-15T16:57:14.851Z,5.97
2022-11-15T16:59:42.008Z,6.09
2022-11-15T17:02:15.290Z,6.14
2022-11-15T17:04:42.828Z,6.12
2022-11-15T17:07:10.363Z,6.23
2022-11-15T17:09:38.509Z,6.34
2022-11-15T17:12:06.790Z,6.19
2022-11-15T17:14:33.794Z,6.01
2022-11-15T17:17:00.937Z,5.99
2022-11-15T17:19:28.123Z,6.00
2022-11-15T17:21:54.910Z,5.96
2022-11-15T17:24:21.908Z,6.02
2022-11-15T17:26:49.534Z,6.19
2022-11-15T17:29:16.522Z,6.23
2022-11-15T17:31:44.850Z,6.22
2022-11-15T17:34:13.500Z,6.26
2022-11-15T17:36:41.322Z,6.12
2022-11-15T17:39:08.328Z,6.43
2022-11-15T17:41:35.435Z,6.34
2022-11-15T17:44:03.831Z,6.23
2022-11-15T17:46:31.746Z,6.22
2022-11-15T17:48:58.884Z,6.26
2022-11-15T17:51:26.427Z,6.43
2022-11-15T17:53:54.074Z,6.17
2022-11-15T17:56:22.957Z,6.36
2022-11-15T17:58:54.534Z,6.15
2022-11-15T18:01:27.277Z,6.16
2022-11-15T18:03:55.340Z,6.11
2022-11-15T18:06:24.304Z,5.97
2022-11-15T18:08:53.177Z,6.00
2022-11-15T18:11:23.263Z,6.07
2022-11-15T18:13:52.606Z,6.08
2022-11-15T18:16:22.777Z,6.09
2022-11-15T18:18:49.916Z,6.15
2022-11-15T18:21:20.367Z,5.89
2022-11-15T18:23:48.364Z,5.87
2022-11-15T18:26:17.217Z,5.89
2022-11-15T18:28:47.761Z,6.03
2022-11-15T18:31:21.539Z,5.71
2022-11-15T18:33:50.146Z,6.14
2022-11-15T18:36:20.256Z,6.10
2022-11-15T18:38:48.373Z,6.17
2022-11-15T18:41:20.787Z,6.10
2022-11-15T18:43:51.663Z,6.31
2022-11-15T18:46:21.077Z,6.35
2022-11-15T18:48:53.241Z,6.39
2022-11-15T18:51:27.885Z,6.15
2022-11-15T18:54:00.368Z,6.19
2022-11-15T18:56:29.695Z,6.37
2022-11-15T18:58:59.669Z,5.94
2022-11-15T19:01:28.215Z,6.40
2022-11-15T19:03:58.668Z,6.21
2022-11-15T19:06:30.827Z,6.17
2022-11-15T19:08:59.735Z,6.48
2022-11-15T19:11:32.661Z,6.24
2022-11-15T19:14:04.504Z,6.26
2022-11-15T19:16:34.698Z,6.26
2022-11-15T19:19:03.546Z,6.30
2022-11-15T19:21:31.819Z,6.25
2022-11-15T19:24:00.744Z,6.16
2022-11-15T19:26:29.947Z,6.05
2022-11-15T19:29:02.358Z,6.21
2022-11-15T19:31:31.788Z,5.96
2022-11-15T19:34:01.791Z,6.23
2022-11-15T19:36:34.676Z,5.94
2022-11-15T19:39:07.140Z,6.40
2022-11-15T19:41:43.932Z,6.37
2022-11-15T19:44:12.821Z,6.30
2022-11-15T19:46:42.430Z,6.29
2022-11-15T19:49:11.536Z,6.25
2022-11-15T19:51:42.143Z,6.20
2022-11-15T19:54:10.991Z,6.09
2022-11-15T19:56:40.400Z,6.07
2022-11-15T19:59:07.995Z,6.34
2022-11-15T20:01:38.178Z,6.15
2022-11-15T20:04:07.420Z,6.23
2022-11-15T20:06:37.557Z,6.35
2022-11-15T20:09:05.097Z,6.40
2022-11-15T20:11:33.930Z,6.58
2022-11-15T20:14:05.696Z,6.69
2022-11-15T20:16:33.736Z,6.24
2022-11-15T20:19:00.885Z,6.09
2022-11-15T20:21:28.577Z,6.06
2022-11-15T20:23:56.513Z,5.98
2022-11-15T20:26:23.901Z,6.35
2022-11-15T20:28:51.292Z,6.06
2022-11-15T20:31:18.765Z,6.40
2022-11-15T20:33:46.398Z,6.38
2022-11-15T20:36:15.896Z,6.31
2022-11-15T20:38:44.842Z,6.34
2022-11-15T20:41:13.266Z,6.49
2022-11-15T20:43:43.644Z,6.54
2022-11-15T20:46:13.652Z,6.44
2022-11-15T20:48:41.335Z,6.38
2022-11-15T20:51:11.203Z,6.24
2022-11-15T20:53:38.770Z,6.26
2022-11-15T20:56:12.043Z,6.39
2022-11-15T20:58:39.306Z,6.47
2022-11-15T21:01:08.549Z,6.35
2022-11-15T21:03:35.906Z,6.25
2022-11-15T21:06:03.192Z,6.33
2022-11-15T21:08:50.204Z,6.17
2022-11-15T21:11:35.734Z,6.46
2022-11-15T21:14:07.721Z,6.38
2022-11-15T21:16:35.973Z,6.47
2022-11-15T21:19:02.834Z,6.25
2022-11-15T21:21:29.695Z,6.40
2022-11-15T21:23:56.551Z,6.05
2022-11-15T21:26:23.533Z,6.18
2022-11-15T21:28:50.444Z,6.35
2022-11-15T21:31:17.183Z,6.17
2022-11-15T21:33:43.917Z,6.69
2022-11-15T21:36:10.652Z,6.58
2022-11-15T21:38:37.472Z,6.54
2022-11-15T21:41:04.440Z,6.50
2022-11-15T21:43:31.834Z,6.51
2022-11-15T21:46:01.073Z,6.07
2022-11-15T21:48:29.428Z,6.42
2022-11-15T21:51:01.828Z,6.35
2022-11-15T21:53:29.791Z,6.48
2022-11-15T21:55:56.573Z,6.27
2022-11-15T21:58:24.011Z,6.06
2022-11-15T22:01:09.285Z,6.05
2022-11-15T22:03:36.501Z,6.05
2022-11-15T22:06:03.360Z,6.36
2022-11-15T22:08:31.672Z,6.53
2022-11-15T22:10:59.153Z,6.62
2022-11-15T22:13:26.533Z,6.39
2022-11-15T22:15:56.403Z,6.60
2022-11-15T22:18:26.786Z,6.45
2022-11-15T22:21:02.434Z,6.35
2022-11-15T22:23:30.663Z,6.29
2022-11-15T22:25:57.659Z,6.58
2022-11-15T22:28:24.630Z,6.42
2022-11-15T22:30:53.409Z,6.32
2022-11-15T22:33:22.756Z,6.27
2022-11-15T22:35:49.981Z,6.45
2022-11-15T22:38:17.085Z,6.42
2022-11-15T22:40:44.133Z,6.47
2022-11-15T22:43:16.352Z,6.26
2022-11-15T22:45:52.143Z,6.43
2022-11-15T22:48:24.875Z,6.53
2022-11-15T22:50:51.604Z,6.44
2022-11-15T22:53:19.462Z,6.38
2022-11-15T22:56:00.956Z,6.58
2022-11-15T22:58:31.023Z,6.57
2022-11-15T23:01:01.942Z,6.46
2022-11-15T23:03:30.400Z,6.51
2022-11-15T23:06:02.139Z,6.31
2022-11-15T23:08:28.907Z,6.36
2022-11-15T23:11:14.506Z,6.48
2022-11-15T23:13:41.232Z,6.44
2022-11-15T23:16:23.875Z,6.55
2022-11-15T23:18:53.973Z,6.56
2022-11-15T23:21:51.717Z,6.55
2022-11-15T23:24:19.334Z,6.34
2022-11-15T23:26:48.524Z,6.47
2022-11-15T23:29:17.257Z,6.51
2022-11-15T23:32:03.120Z,6.25
2022-11-15T23:34:31.242Z,6.35
2022-11-15T23:36:58.734Z,6.36
2022-11-15T23:39:25.653Z,6.60
2022-11-15T23:41:52.415Z,6.50
2022-11-15T23:44:19.107Z,6.58
2022-11-15T23:46:46.116Z,6.53
2022-11-15T23:49:12.972Z,6.47
2022-11-15T23:51:39.799Z,6.31
2022-11-15T23:54:06.881Z,6.48
2022-11-15T23:56:34.253Z,6.47
2022-11-15T23:59:01.218Z,6.47
